sensor_id;sensor_type;location;lat;lon;timestamp;P1;durP1;ratioP1;P2;durP2;ratioP2
10430;SDS011;5262;59.958;17.726;2024-03-02T00:02:13;47.10;;;18.60;;
10430;SDS011;5262;59.958;17.726;2024-03-02T00:04:40;44.33;;;19.97;;
10430;SDS011;5262;59.958;17.726;2024-03-02T00:07:06;45.90;;;19.03;;
10430;SDS011;5262;59.958;17.726;2024-03-02T00:09:32;51.40;;;19.23;;
10430;SDS011;5262;59.958;17.726;2024-03-02T00:11:59;48.50;;;18.37;;
10430;SDS011;5262;59.958;17.726;2024-03-02T00:14:25;62.90;;;20.20;;
10430;SDS011;5262;59.958;17.726;2024-03-02T00:16:54;49.40;;;18.17;;
10430;SDS011;5262;59.958;17.726;2024-03-02T00:19:21;51.67;;;19.40;;
10430;SDS011;5262;59.958;17.726;2024-03-02T00:21:47;48.00;;;18.77;;
10430;SDS011;5262;59.958;17.726;2024-03-02T00:24:26;40.77;;;19.00;;
10430;SDS011;5262;59.958;17.726;2024-03-02T00:26:57;39.53;;;18.03;;
10430;SDS011;5262;59.958;17.726;2024-03-02T00:29:23;43.27;;;19.63;;
10430;SDS011;5262;59.958;17.726;2024-03-02T00:31:49;42.27;;;19.60;;
10430;SDS011;5262;59.958;17.726;2024-03-02T00:34:15;57.43;;;20.50;;
10430;SDS011;5262;59.958;17.726;2024-03-02T00:36:42;45.17;;;18.60;;
10430;SDS011;5262;59.958;17.726;2024-03-02T00:39:08;45.27;;;19.47;;
10430;SDS011;5262;59.958;17.726;2024-03-02T00:41:36;52.80;;;19.63;;
10430;SDS011;5262;59.958;17.726;2024-03-02T00:44:15;38.50;;;19.33;;
10430;SDS011;5262;59.958;17.726;2024-03-02T00:46:41;45.20;;;18.60;;
10430;SDS011;5262;59.958;17.726;2024-03-02T00:49:18;51.27;;;18.83;;
10430;SDS011;5262;59.958;17.726;2024-03-02T00:51:48;46.87;;;19.30;;
10430;SDS011;5262;59.958;17.726;2024-03-02T00:54:18;42.80;;;19.20;;
10430;SDS011;5262;59.958;17.726;2024-03-02T00:56:45;44.23;;;19.57;;
10430;SDS011;5262;59.958;17.726;2024-03-02T00:59:12;54.80;;;20.23;;
10430;SDS011;5262;59.958;17.726;2024-03-02T01:01:38;46.57;;;20.07;;
10430;SDS011;5262;59.958;17.726;2024-03-02T01:04:03;41.93;;;18.43;;
10430;SDS011;5262;59.958;17.726;2024-03-02T01:06:30;37.50;;;18.13;;
10430;SDS011;5262;59.958;17.726;2024-03-02T01:08:56;45.30;;;19.63;;
10430;SDS011;5262;59.958;17.726;2024-03-02T01:11:21;38.00;;;18.17;;
10430;SDS011;5262;59.958;17.726;2024-03-02T01:13:47;44.73;;;20.20;;
10430;SDS011;5262;59.958;17.726;2024-03-02T01:16:13;47.43;;;20.17;;
10430;SDS011;5262;59.958;17.726;2024-03-02T01:18:40;46.80;;;20.90;;
10430;SDS011;5262;59.958;17.726;2024-03-02T01:21:07;40.93;;;20.83;;
10430;SDS011;5262;59.958;17.726;2024-03-02T01:23:32;37.47;;;19.37;;
10430;SDS011;5262;59.958;17.726;2024-03-02T01:25:58;41.37;;;18.83;;
10430;SDS011;5262;59.958;17.726;2024-03-02T01:28:24;40.80;;;18.87;;
10430;SDS011;5262;59.958;17.726;2024-03-02T01:30:50;37.40;;;19.20;;
10430;SDS011;5262;59.958;17.726;2024-03-02T01:33:19;49.27;;;20.50;;
10430;SDS011;5262;59.958;17.726;2024-03-02T01:35:45;54.77;;;21.80;;
10430;SDS011;5262;59.958;17.726;2024-03-02T01:38:11;48.40;;;21.27;;
10430;SDS011;5262;59.958;17.726;2024-03-02T01:40:37;39.33;;;19.93;;
10430;SDS011;5262;59.958;17.726;2024-03-02T01:43:06;53.70;;;21.80;;
10430;SDS011;5262;59.958;17.726;2024-03-02T01:45:32;44.10;;;19.87;;
10430;SDS011;5262;59.958;17.726;2024-03-02T01:47:58;48.50;;;21.03;;
10430;SDS011;5262;59.958;17.726;2024-03-02T01:50:42;41.77;;;20.43;;
10430;SDS011;5262;59.958;17.726;2024-03-02T01:53:08;40.20;;;20.03;;
10430;SDS011;5262;59.958;17.726;2024-03-02T01:55:34;43.43;;;20.07;;
10430;SDS011;5262;59.958;17.726;2024-03-02T01:58:00;44.63;;;20.17;;
10430;SDS011;5262;59.958;17.726;2024-03-02T02:00:26;42.07;;;20.67;;
10430;SDS011;5262;59.958;17.726;2024-03-02T02:02:52;33.40;;;18.70;;
10430;SDS011;5262;59.958;17.726;2024-03-02T02:05:18;31.10;;;18.63;;
10430;SDS011;5262;59.958;17.726;2024-03-02T02:07:44;40.67;;;19.30;;
10430;SDS011;5262;59.958;17.726;2024-03-02T02:10:10;34.07;;;19.23;;
10430;SDS011;5262;59.958;17.726;2024-03-02T02:12:36;38.53;;;19.83;;
10430;SDS011;5262;59.958;17.726;2024-03-02T02:15:02;37.87;;;19.43;;
10430;SDS011;5262;59.958;17.726;2024-03-02T02:17:29;37.90;;;19.30;;
10430;SDS011;5262;59.958;17.726;2024-03-02T02:19:54;39.83;;;19.67;;
10430;SDS011;5262;59.958;17.726;2024-03-02T02:22:20;40.80;;;19.63;;
10430;SDS011;5262;59.958;17.726;2024-03-02T02:24:46;41.03;;;19.23;;
10430;SDS011;5262;59.958;17.726;2024-03-02T02:27:11;33.13;;;19.23;;
10430;SDS011;5262;59.958;17.726;2024-03-02T02:29:40;41.43;;;21.63;;
10430;SDS011;5262;59.958;17.726;2024-03-02T02:32:06;37.80;;;20.23;;
10430;SDS011;5262;59.958;17.726;2024-03-02T02:34:32;41.20;;;20.80;;
10430;SDS011;5262;59.958;17.726;2024-03-02T02:36:58;40.40;;;21.70;;
10430;SDS011;5262;59.958;17.726;2024-03-02T02:39:24;36.73;;;21.03;;
10430;SDS011;5262;59.958;17.726;2024-03-02T02:41:50;36.93;;;20.77;;
10430;SDS011;5262;59.958;17.726;2024-03-02T02:44:15;41.50;;;20.73;;
10430;SDS011;5262;59.958;17.726;2024-03-02T02:46:41;38.50;;;21.47;;
10430;SDS011;5262;59.958;17.726;2024-03-02T02:49:07;37.67;;;20.47;;
10430;SDS011;5262;59.958;17.726;2024-03-02T02:51:33;39.40;;;20.10;;
10430;SDS011;5262;59.958;17.726;2024-03-02T02:53:58;37.03;;;20.40;;
10430;SDS011;5262;59.958;17.726;2024-03-02T02:56:24;43.17;;;20.60;;
10430;SDS011;5262;59.958;17.726;2024-03-02T02:58:50;43.77;;;21.00;;
10430;SDS011;5262;59.958;17.726;2024-03-02T03:01:16;34.63;;;20.40;;
10430;SDS011;5262;59.958;17.726;2024-03-02T03:03:43;40.70;;;20.57;;
10430;SDS011;5262;59.958;17.726;2024-03-02T03:06:09;39.63;;;20.73;;
10430;SDS011;5262;59.958;17.726;2024-03-02T03:08:35;35.73;;;19.50;;
10430;SDS011;5262;59.958;17.726;2024-03-02T03:11:01;40.10;;;20.33;;
10430;SDS011;5262;59.958;17.726;2024-03-02T03:13:27;39.60;;;20.87;;
10430;SDS011;5262;59.958;17.726;2024-03-02T03:15:53;37.73;;;19.67;;
10430;SDS011;5262;59.958;17.726;2024-03-02T03:18:19;38.90;;;18.97;;
10430;SDS011;5262;59.958;17.726;2024-03-02T03:20:44;36.27;;;20.23;;
10430;SDS011;5262;59.958;17.726;2024-03-02T03:23:10;32.20;;;19.03;;
10430;SDS011;5262;59.958;17.726;2024-03-02T03:25:40;37.73;;;19.47;;
10430;SDS011;5262;59.958;17.726;2024-03-02T03:28:06;34.23;;;19.30;;
10430;SDS011;5262;59.958;17.726;2024-03-02T03:30:34;37.63;;;19.63;;
10430;SDS011;5262;59.958;17.726;2024-03-02T03:33:03;27.37;;;18.33;;
10430;SDS011;5262;59.958;17.726;2024-03-02T03:35:33;35.70;;;19.73;;
10430;SDS011;5262;59.958;17.726;2024-03-02T03:38:00;32.70;;;19.03;;
10430;SDS011;5262;59.958;17.726;2024-03-02T03:40:25;34.30;;;19.63;;
10430;SDS011;5262;59.958;17.726;2024-03-02T03:42:51;35.03;;;19.20;;
10430;SDS011;5262;59.958;17.726;2024-03-02T03:45:17;35.90;;;20.73;;
10430;SDS011;5262;59.958;17.726;2024-03-02T03:47:43;35.20;;;18.60;;
10430;SDS011;5262;59.958;17.726;2024-03-02T03:50:10;34.60;;;20.23;;
10430;SDS011;5262;59.958;17.726;2024-03-02T03:52:35;36.47;;;19.23;;
10430;SDS011;5262;59.958;17.726;2024-03-02T03:55:01;34.27;;;21.00;;
10430;SDS011;5262;59.958;17.726;2024-03-02T03:57:27;41.67;;;21.53;;
10430;SDS011;5262;59.958;17.726;2024-03-02T03:59:53;37.40;;;21.27;;
10430;SDS011;5262;59.958;17.726;2024-03-02T04:02:19;36.20;;;20.93;;
10430;SDS011;5262;59.958;17.726;2024-03-02T04:04:44;32.53;;;20.73;;
10430;SDS011;5262;59.958;17.726;2024-03-02T04:07:11;38.47;;;21.20;;
10430;SDS011;5262;59.958;17.726;2024-03-02T04:09:37;37.10;;;22.73;;
10430;SDS011;5262;59.958;17.726;2024-03-02T04:12:02;42.73;;;21.40;;
10430;SDS011;5262;59.958;17.726;2024-03-02T04:14:28;41.60;;;23.47;;
10430;SDS011;5262;59.958;17.726;2024-03-02T04:16:54;39.03;;;22.13;;
10430;SDS011;5262;59.958;17.726;2024-03-02T04:19:20;40.97;;;23.87;;
10430;SDS011;5262;59.958;17.726;2024-03-02T04:21:46;49.37;;;23.13;;
10430;SDS011;5262;59.958;17.726;2024-03-02T04:24:12;39.07;;;22.00;;
10430;SDS011;5262;59.958;17.726;2024-03-02T04:26:37;39.13;;;21.67;;
10430;SDS011;5262;59.958;17.726;2024-03-02T04:29:03;37.97;;;22.93;;
10430;SDS011;5262;59.958;17.726;2024-03-02T04:31:29;39.80;;;23.40;;
10430;SDS011;5262;59.958;17.726;2024-03-02T04:33:54;37.07;;;21.17;;
10430;SDS011;5262;59.958;17.726;2024-03-02T04:36:20;37.07;;;20.50;;
10430;SDS011;5262;59.958;17.726;2024-03-02T04:38:46;41.03;;;21.87;;
10430;SDS011;5262;59.958;17.726;2024-03-02T04:41:12;48.90;;;21.73;;
10430;SDS011;5262;59.958;17.726;2024-03-02T04:43:37;41.90;;;22.37;;
10430;SDS011;5262;59.958;17.726;2024-03-02T04:46:03;40.23;;;22.53;;
10430;SDS011;5262;59.958;17.726;2024-03-02T04:48:29;39.67;;;22.43;;
10430;SDS011;5262;59.958;17.726;2024-03-02T04:50:56;37.10;;;22.23;;
10430;SDS011;5262;59.958;17.726;2024-03-02T04:53:21;44.30;;;23.57;;
10430;SDS011;5262;59.958;17.726;2024-03-02T04:55:47;37.80;;;21.80;;
10430;SDS011;5262;59.958;17.726;2024-03-02T04:58:31;49.57;;;21.87;;
10430;SDS011;5262;59.958;17.726;2024-03-02T05:00:57;41.03;;;23.10;;
10430;SDS011;5262;59.958;17.726;2024-03-02T05:03:22;39.77;;;21.27;;
10430;SDS011;5262;59.958;17.726;2024-03-02T05:05:49;39.13;;;23.50;;
10430;SDS011;5262;59.958;17.726;2024-03-02T05:08:15;38.27;;;21.67;;
10430;SDS011;5262;59.958;17.726;2024-03-02T05:10:42;33.90;;;21.67;;
10430;SDS011;5262;59.958;17.726;2024-03-02T05:13:07;39.53;;;22.20;;
10430;SDS011;5262;59.958;17.726;2024-03-02T05:15:33;39.93;;;23.30;;
10430;SDS011;5262;59.958;17.726;2024-03-02T05:17:58;40.33;;;22.60;;
10430;SDS011;5262;59.958;17.726;2024-03-02T05:20:25;36.57;;;21.23;;
10430;SDS011;5262;59.958;17.726;2024-03-02T05:22:50;37.30;;;21.90;;
10430;SDS011;5262;59.958;17.726;2024-03-02T05:25:16;40.97;;;23.00;;
10430;SDS011;5262;59.958;17.726;2024-03-02T05:27:42;40.40;;;22.43;;
10430;SDS011;5262;59.958;17.726;2024-03-02T05:30:07;40.77;;;22.43;;
10430;SDS011;5262;59.958;17.726;2024-03-02T05:32:34;36.93;;;22.47;;
10430;SDS011;5262;59.958;17.726;2024-03-02T05:34:59;38.90;;;21.47;;
10430;SDS011;5262;59.958;17.726;2024-03-02T05:37:25;42.73;;;22.23;;
10430;SDS011;5262;59.958;17.726;2024-03-02T05:39:50;41.87;;;22.07;;
10430;SDS011;5262;59.958;17.726;2024-03-02T05:42:16;37.23;;;21.47;;
10430;SDS011;5262;59.958;17.726;2024-03-02T05:44:42;48.80;;;22.73;;
10430;SDS011;5262;59.958;17.726;2024-03-02T05:47:08;38.63;;;22.90;;
10430;SDS011;5262;59.958;17.726;2024-03-02T05:49:34;43.50;;;23.63;;
10430;SDS011;5262;59.958;17.726;2024-03-02T05:52:00;41.67;;;23.20;;
10430;SDS011;5262;59.958;17.726;2024-03-02T05:54:25;42.73;;;24.03;;
10430;SDS011;5262;59.958;17.726;2024-03-02T05:56:51;43.40;;;22.80;;
10430;SDS011;5262;59.958;17.726;2024-03-02T05:59:16;40.73;;;24.20;;
10430;SDS011;5262;59.958;17.726;2024-03-02T06:01:43;45.27;;;23.40;;
10430;SDS011;5262;59.958;17.726;2024-03-02T06:04:10;34.77;;;21.83;;
10430;SDS011;5262;59.958;17.726;2024-03-02T06:06:38;46.50;;;23.00;;
10430;SDS011;5262;59.958;17.726;2024-03-02T06:09:05;40.70;;;22.50;;
10430;SDS011;5262;59.958;17.726;2024-03-02T06:11:36;37.53;;;22.00;;
10430;SDS011;5262;59.958;17.726;2024-03-02T06:14:03;42.93;;;23.27;;
10430;SDS011;5262;59.958;17.726;2024-03-02T06:16:29;42.03;;;22.30;;
10430;SDS011;5262;59.958;17.726;2024-03-02T06:18:55;50.47;;;23.13;;
10430;SDS011;5262;59.958;17.726;2024-03-02T06:21:22;41.57;;;21.60;;
10430;SDS011;5262;59.958;17.726;2024-03-02T06:23:48;41.07;;;22.03;;
10430;SDS011;5262;59.958;17.726;2024-03-02T06:26:14;36.40;;;21.23;;
10430;SDS011;5262;59.958;17.726;2024-03-02T06:28:40;37.60;;;22.13;;
10430;SDS011;5262;59.958;17.726;2024-03-02T06:31:06;37.77;;;19.83;;
10430;SDS011;5262;59.958;17.726;2024-03-02T06:33:31;37.43;;;21.53;;
10430;SDS011;5262;59.958;17.726;2024-03-02T06:35:57;42.87;;;21.50;;
10430;SDS011;5262;59.958;17.726;2024-03-02T06:38:23;42.23;;;21.53;;
10430;SDS011;5262;59.958;17.726;2024-03-02T06:40:48;44.10;;;21.00;;
10430;SDS011;5262;59.958;17.726;2024-03-02T06:43:14;40.13;;;21.53;;
10430;SDS011;5262;59.958;17.726;2024-03-02T06:45:40;40.73;;;21.37;;
10430;SDS011;5262;59.958;17.726;2024-03-02T06:48:06;39.97;;;20.97;;
10430;SDS011;5262;59.958;17.726;2024-03-02T06:50:32;38.40;;;21.83;;
10430;SDS011;5262;59.958;17.726;2024-03-02T06:52:57;40.13;;;21.90;;
10430;SDS011;5262;59.958;17.726;2024-03-02T06:55:23;42.53;;;20.47;;
10430;SDS011;5262;59.958;17.726;2024-03-02T06:57:49;39.83;;;20.77;;
10430;SDS011;5262;59.958;17.726;2024-03-02T07:00:16;33.70;;;19.33;;
10430;SDS011;5262;59.958;17.726;2024-03-02T07:02:43;36.20;;;20.23;;
10430;SDS011;5262;59.958;17.726;2024-03-02T07:05:09;35.70;;;19.47;;
10430;SDS011;5262;59.958;17.726;2024-03-02T07:07:36;36.90;;;20.70;;
10430;SDS011;5262;59.958;17.726;2024-03-02T07:10:03;40.67;;;20.30;;
10430;SDS011;5262;59.958;17.726;2024-03-02T07:12:29;42.97;;;20.23;;
10430;SDS011;5262;59.958;17.726;2024-03-02T07:14:56;37.30;;;18.87;;
10430;SDS011;5262;59.958;17.726;2024-03-02T07:17:27;37.10;;;19.73;;
10430;SDS011;5262;59.958;17.726;2024-03-02T07:19:53;35.80;;;19.33;;
10430;SDS011;5262;59.958;17.726;2024-03-02T07:22:19;29.67;;;18.53;;
10430;SDS011;5262;59.958;17.726;2024-03-02T07:24:44;32.03;;;18.93;;
10430;SDS011;5262;59.958;17.726;2024-03-02T07:27:13;34.80;;;19.33;;
10430;SDS011;5262;59.958;17.726;2024-03-02T07:29:39;39.57;;;20.50;;
10430;SDS011;5262;59.958;17.726;2024-03-02T07:32:05;31.47;;;18.67;;
10430;SDS011;5262;59.958;17.726;2024-03-02T07:34:32;36.90;;;19.00;;
10430;SDS011;5262;59.958;17.726;2024-03-02T07:36:58;43.30;;;19.20;;
10430;SDS011;5262;59.958;17.726;2024-03-02T07:39:24;28.33;;;17.23;;
10430;SDS011;5262;59.958;17.726;2024-03-02T07:41:50;27.50;;;16.57;;
10430;SDS011;5262;59.958;17.726;2024-03-02T07:44:16;25.80;;;17.33;;
10430;SDS011;5262;59.958;17.726;2024-03-02T07:46:44;31.37;;;17.80;;
10430;SDS011;5262;59.958;17.726;2024-03-02T07:49:11;27.97;;;16.90;;
10430;SDS011;5262;59.958;17.726;2024-03-02T07:51:40;29.07;;;17.20;;
10430;SDS011;5262;59.958;17.726;2024-03-02T07:54:06;26.83;;;15.13;;
10430;SDS011;5262;59.958;17.726;2024-03-02T07:56:32;29.70;;;15.53;;
10430;SDS011;5262;59.958;17.726;2024-03-02T07:58:58;25.33;;;15.87;;
10430;SDS011;5262;59.958;17.726;2024-03-02T08:01:29;27.73;;;14.50;;
10430;SDS011;5262;59.958;17.726;2024-03-02T08:03:58;25.40;;;16.10;;
10430;SDS011;5262;59.958;17.726;2024-03-02T08:06:24;29.00;;;15.33;;
10430;SDS011;5262;59.958;17.726;2024-03-02T08:08:59;24.30;;;15.77;;
10430;SDS011;5262;59.958;17.726;2024-03-02T08:11:26;24.60;;;14.53;;
10430;SDS011;5262;59.958;17.726;2024-03-02T08:13:52;25.90;;;14.00;;
10430;SDS011;5262;59.958;17.726;2024-03-02T08:16:20;25.77;;;14.37;;
10430;SDS011;5262;59.958;17.726;2024-03-02T08:18:47;25.10;;;14.87;;
10430;SDS011;5262;59.958;17.726;2024-03-02T08:21:14;25.00;;;14.90;;
10430;SDS011;5262;59.958;17.726;2024-03-02T08:23:40;25.10;;;15.00;;
10430;SDS011;5262;59.958;17.726;2024-03-02T08:26:07;26.00;;;15.03;;
10430;SDS011;5262;59.958;17.726;2024-03-02T08:28:33;21.93;;;14.83;;
10430;SDS011;5262;59.958;17.726;2024-03-02T08:30:59;24.07;;;14.13;;
10430;SDS011;5262;59.958;17.726;2024-03-02T08:33:25;25.83;;;15.10;;
10430;SDS011;5262;59.958;17.726;2024-03-02T08:35:51;22.73;;;14.10;;
10430;SDS011;5262;59.958;17.726;2024-03-02T08:38:16;24.37;;;14.73;;
10430;SDS011;5262;59.958;17.726;2024-03-02T08:40:42;24.33;;;14.03;;
10430;SDS011;5262;59.958;17.726;2024-03-02T08:43:09;22.53;;;14.17;;
10430;SDS011;5262;59.958;17.726;2024-03-02T08:45:34;23.97;;;14.03;;
10430;SDS011;5262;59.958;17.726;2024-03-02T08:48:00;22.33;;;14.37;;
10430;SDS011;5262;59.958;17.726;2024-03-02T08:50:26;24.33;;;13.43;;
10430;SDS011;5262;59.958;17.726;2024-03-02T08:52:52;20.17;;;13.27;;
10430;SDS011;5262;59.958;17.726;2024-03-02T08:55:17;24.40;;;13.33;;
10430;SDS011;5262;59.958;17.726;2024-03-02T08:57:43;24.80;;;13.40;;
10430;SDS011;5262;59.958;17.726;2024-03-02T09:00:09;24.37;;;13.53;;
10430;SDS011;5262;59.958;17.726;2024-03-02T09:02:35;28.17;;;13.43;;
10430;SDS011;5262;59.958;17.726;2024-03-02T09:05:01;24.80;;;13.87;;
10430;SDS011;5262;59.958;17.726;2024-03-02T09:07:27;23.17;;;14.37;;
10430;SDS011;5262;59.958;17.726;2024-03-02T09:09:53;24.57;;;13.50;;
10430;SDS011;5262;59.958;17.726;2024-03-02T09:12:19;20.00;;;12.63;;
10430;SDS011;5262;59.958;17.726;2024-03-02T09:14:44;18.43;;;12.43;;
10430;SDS011;5262;59.958;17.726;2024-03-02T09:17:11;20.63;;;12.03;;
10430;SDS011;5262;59.958;17.726;2024-03-02T09:19:37;21.33;;;13.00;;
10430;SDS011;5262;59.958;17.726;2024-03-02T09:22:04;20.43;;;11.97;;
10430;SDS011;5262;59.958;17.726;2024-03-02T09:24:31;20.50;;;12.90;;
10430;SDS011;5262;59.958;17.726;2024-03-02T09:26:58;27.97;;;13.00;;
10430;SDS011;5262;59.958;17.726;2024-03-02T09:29:24;21.37;;;13.00;;
10430;SDS011;5262;59.958;17.726;2024-03-02T09:31:49;19.70;;;12.70;;
10430;SDS011;5262;59.958;17.726;2024-03-02T09:34:15;16.87;;;11.53;;
10430;SDS011;5262;59.958;17.726;2024-03-02T09:36:41;18.27;;;11.97;;
10430;SDS011;5262;59.958;17.726;2024-03-02T09:39:07;23.37;;;13.43;;
10430;SDS011;5262;59.958;17.726;2024-03-02T09:41:34;20.23;;;12.20;;
10430;SDS011;5262;59.958;17.726;2024-03-02T09:44:02;17.27;;;11.93;;
10430;SDS011;5262;59.958;17.726;2024-03-02T09:46:28;19.90;;;12.00;;
10430;SDS011;5262;59.958;17.726;2024-03-02T09:48:54;17.70;;;11.63;;
10430;SDS011;5262;59.958;17.726;2024-03-02T09:51:19;21.70;;;12.53;;
10430;SDS011;5262;59.958;17.726;2024-03-02T09:53:45;22.57;;;12.53;;
10430;SDS011;5262;59.958;17.726;2024-03-02T09:56:12;21.47;;;12.27;;
10430;SDS011;5262;59.958;17.726;2024-03-02T09:58:38;21.43;;;12.23;;
10430;SDS011;5262;59.958;17.726;2024-03-02T10:01:07;19.50;;;11.80;;
10430;SDS011;5262;59.958;17.726;2024-03-02T10:03:35;19.87;;;11.07;;
10430;SDS011;5262;59.958;17.726;2024-03-02T10:06:24;22.03;;;12.23;;
10430;SDS011;5262;59.958;17.726;2024-03-02T10:08:51;19.47;;;12.07;;
10430;SDS011;5262;59.958;17.726;2024-03-02T10:11:29;16.40;;;11.00;;
10430;SDS011;5262;59.958;17.726;2024-03-02T10:16:33;18.17;;;12.53;;
10430;SDS011;5262;59.958;17.726;2024-03-02T10:22:03;18.53;;;12.13;;
10430;SDS011;5262;59.958;17.726;2024-03-02T10:24:38;15.40;;;11.10;;
10430;SDS011;5262;59.958;17.726;2024-03-02T10:27:22;20.17;;;11.13;;
10430;SDS011;5262;59.958;17.726;2024-03-02T10:29:51;18.13;;;10.63;;
10430;SDS011;5262;59.958;17.726;2024-03-02T10:32:17;16.43;;;10.80;;
10430;SDS011;5262;59.958;17.726;2024-03-02T10:34:44;20.73;;;10.90;;
10430;SDS011;5262;59.958;17.726;2024-03-02T10:37:11;17.37;;;10.87;;
10430;SDS011;5262;59.958;17.726;2024-03-02T10:39:37;17.07;;;10.53;;
10430;SDS011;5262;59.958;17.726;2024-03-02T10:42:07;19.67;;;10.77;;
10430;SDS011;5262;59.958;17.726;2024-03-02T10:44:33;16.13;;;9.97;;
10430;SDS011;5262;59.958;17.726;2024-03-02T10:47:00;18.23;;;10.93;;
10430;SDS011;5262;59.958;17.726;2024-03-02T10:49:30;19.23;;;10.93;;
10430;SDS011;5262;59.958;17.726;2024-03-02T10:51:59;18.30;;;10.67;;
10430;SDS011;5262;59.958;17.726;2024-03-02T10:54:25;16.60;;;10.77;;
10430;SDS011;5262;59.958;17.726;2024-03-02T10:56:52;19.10;;;10.60;;
10430;SDS011;5262;59.958;17.726;2024-03-02T11:01:55;15.90;;;9.70;;
10430;SDS011;5262;59.958;17.726;2024-03-02T11:04:24;17.77;;;10.37;;
10430;SDS011;5262;59.958;17.726;2024-03-02T11:06:51;20.97;;;10.03;;
10430;SDS011;5262;59.958;17.726;2024-03-02T11:09:20;16.03;;;10.87;;
10430;SDS011;5262;59.958;17.726;2024-03-02T11:14:28;15.07;;;9.67;;
10430;SDS011;5262;59.958;17.726;2024-03-02T11:16:57;15.17;;;10.00;;
10430;SDS011;5262;59.958;17.726;2024-03-02T11:19:25;14.13;;;9.97;;
10430;SDS011;5262;59.958;17.726;2024-03-02T11:21:51;15.10;;;10.03;;
10430;SDS011;5262;59.958;17.726;2024-03-02T11:27:08;18.23;;;10.47;;
10430;SDS011;5262;59.958;17.726;2024-03-02T11:32:06;19.00;;;10.77;;
10430;SDS011;5262;59.958;17.726;2024-03-02T11:34:41;16.47;;;10.63;;
10430;SDS011;5262;59.958;17.726;2024-03-02T11:37:17;14.27;;;9.60;;
10430;SDS011;5262;59.958;17.726;2024-03-02T11:39:45;14.23;;;9.67;;
10430;SDS011;5262;59.958;17.726;2024-03-02T11:42:12;15.20;;;9.57;;
10430;SDS011;5262;59.958;17.726;2024-03-02T11:44:39;14.80;;;9.97;;
10430;SDS011;5262;59.958;17.726;2024-03-02T11:47:14;16.97;;;10.27;;
10430;SDS011;5262;59.958;17.726;2024-03-02T11:52:08;13.30;;;9.93;;
10430;SDS011;5262;59.958;17.726;2024-03-02T11:54:39;14.53;;;10.00;;
10430;SDS011;5262;59.958;17.726;2024-03-02T11:57:12;13.93;;;8.70;;
10430;SDS011;5262;59.958;17.726;2024-03-02T11:59:39;18.17;;;9.77;;
10430;SDS011;5262;59.958;17.726;2024-03-02T12:02:05;15.93;;;9.53;;
10430;SDS011;5262;59.958;17.726;2024-03-02T12:04:31;14.80;;;9.20;;
10430;SDS011;5262;59.958;17.726;2024-03-02T12:07:00;16.50;;;9.70;;
10430;SDS011;5262;59.958;17.726;2024-03-02T12:09:27;16.57;;;9.20;;
10430;SDS011;5262;59.958;17.726;2024-03-02T12:12:11;14.73;;;9.37;;
10430;SDS011;5262;59.958;17.726;2024-03-02T12:14:40;15.83;;;10.37;;
10430;SDS011;5262;59.958;17.726;2024-03-02T12:17:14;13.60;;;9.37;;
10430;SDS011;5262;59.958;17.726;2024-03-02T12:19:40;17.70;;;9.87;;
10430;SDS011;5262;59.958;17.726;2024-03-02T12:22:05;18.60;;;9.77;;
10430;SDS011;5262;59.958;17.726;2024-03-02T12:24:31;17.23;;;10.10;;
10430;SDS011;5262;59.958;17.726;2024-03-02T12:26:57;18.07;;;9.87;;
10430;SDS011;5262;59.958;17.726;2024-03-02T12:29:23;13.13;;;9.07;;
10430;SDS011;5262;59.958;17.726;2024-03-02T12:31:49;13.50;;;9.70;;
10430;SDS011;5262;59.958;17.726;2024-03-02T12:34:17;16.67;;;10.00;;
10430;SDS011;5262;59.958;17.726;2024-03-02T12:36:44;15.77;;;9.40;;
10430;SDS011;5262;59.958;17.726;2024-03-02T12:39:17;13.37;;;9.53;;
10430;SDS011;5262;59.958;17.726;2024-03-02T12:41:44;14.43;;;9.83;;
10430;SDS011;5262;59.958;17.726;2024-03-02T12:44:11;13.37;;;8.83;;
10430;SDS011;5262;59.958;17.726;2024-03-02T12:46:37;18.53;;;10.00;;
10430;SDS011;5262;59.958;17.726;2024-03-02T12:49:09;12.60;;;9.80;;
10430;SDS011;5262;59.958;17.726;2024-03-02T12:51:40;20.57;;;9.87;;
10430;SDS011;5262;59.958;17.726;2024-03-02T12:54:10;17.23;;;9.57;;
10430;SDS011;5262;59.958;17.726;2024-03-02T12:56:36;17.10;;;10.10;;
10430;SDS011;5262;59.958;17.726;2024-03-02T12:59:03;21.57;;;10.73;;
10430;SDS011;5262;59.958;17.726;2024-03-02T13:01:29;14.53;;;9.67;;
10430;SDS011;5262;59.958;17.726;2024-03-02T13:03:56;14.80;;;9.10;;
10430;SDS011;5262;59.958;17.726;2024-03-02T13:06:23;15.00;;;9.87;;
10430;SDS011;5262;59.958;17.726;2024-03-02T13:08:52;17.07;;;9.67;;
10430;SDS011;5262;59.958;17.726;2024-03-02T13:11:18;17.53;;;10.00;;
10430;SDS011;5262;59.958;17.726;2024-03-02T13:13:44;16.67;;;10.90;;
10430;SDS011;5262;59.958;17.726;2024-03-02T13:16:11;17.00;;;10.50;;
10430;SDS011;5262;59.958;17.726;2024-03-02T13:18:41;12.73;;;9.30;;
10430;SDS011;5262;59.958;17.726;2024-03-02T13:21:07;14.13;;;9.73;;
10430;SDS011;5262;59.958;17.726;2024-03-02T13:23:33;16.83;;;9.53;;
10430;SDS011;5262;59.958;17.726;2024-03-02T13:25:59;15.27;;;10.27;;
10430;SDS011;5262;59.958;17.726;2024-03-02T13:28:25;13.70;;;9.67;;
10430;SDS011;5262;59.958;17.726;2024-03-02T13:30:51;16.97;;;10.17;;
10430;SDS011;5262;59.958;17.726;2024-03-02T13:33:17;16.43;;;9.97;;
10430;SDS011;5262;59.958;17.726;2024-03-02T13:35:50;16.27;;;10.10;;
10430;SDS011;5262;59.958;17.726;2024-03-02T13:38:20;12.97;;;8.60;;
10430;SDS011;5262;59.958;17.726;2024-03-02T13:40:46;16.73;;;8.93;;
10430;SDS011;5262;59.958;17.726;2024-03-02T13:43:16;13.83;;;9.60;;
10430;SDS011;5262;59.958;17.726;2024-03-02T13:45:43;15.43;;;9.43;;
10430;SDS011;5262;59.958;17.726;2024-03-02T13:48:09;14.43;;;9.70;;
10430;SDS011;5262;59.958;17.726;2024-03-02T13:50:34;15.03;;;9.73;;
10430;SDS011;5262;59.958;17.726;2024-03-02T13:53:00;12.93;;;9.33;;
10430;SDS011;5262;59.958;17.726;2024-03-02T13:55:26;12.73;;;9.40;;
10430;SDS011;5262;59.958;17.726;2024-03-02T13:57:51;14.80;;;10.17;;
10430;SDS011;5262;59.958;17.726;2024-03-02T14:00:17;17.93;;;9.93;;
10430;SDS011;5262;59.958;17.726;2024-03-02T14:02:45;16.40;;;9.97;;
10430;SDS011;5262;59.958;17.726;2024-03-02T14:05:10;18.00;;;10.47;;
10430;SDS011;5262;59.958;17.726;2024-03-02T14:07:40;17.47;;;9.83;;
10430;SDS011;5262;59.958;17.726;2024-03-02T14:10:06;16.33;;;10.17;;
10430;SDS011;5262;59.958;17.726;2024-03-02T14:12:32;13.53;;;9.47;;
10430;SDS011;5262;59.958;17.726;2024-03-02T14:14:58;17.10;;;10.77;;
10430;SDS011;5262;59.958;17.726;2024-03-02T14:17:25;14.70;;;10.20;;
10430;SDS011;5262;59.958;17.726;2024-03-02T14:19:50;14.77;;;9.37;;
10430;SDS011;5262;59.958;17.726;2024-03-02T14:22:18;17.33;;;10.47;;
10430;SDS011;5262;59.958;17.726;2024-03-02T14:24:47;14.30;;;10.03;;
10430;SDS011;5262;59.958;17.726;2024-03-02T14:27:14;15.97;;;10.43;;
10430;SDS011;5262;59.958;17.726;2024-03-02T14:29:40;17.80;;;9.67;;
10430;SDS011;5262;59.958;17.726;2024-03-02T14:32:07;19.87;;;10.73;;
10430;SDS011;5262;59.958;17.726;2024-03-02T14:34:32;16.43;;;11.17;;
10430;SDS011;5262;59.958;17.726;2024-03-02T14:36:59;15.17;;;10.30;;
10430;SDS011;5262;59.958;17.726;2024-03-02T14:39:25;15.73;;;10.77;;
10430;SDS011;5262;59.958;17.726;2024-03-02T14:41:51;19.00;;;10.57;;